Mega Smeralda — ICIU — position and weather

sailwx.info

Track history (hours):
 
Tides and Currents Weather Stations Pressure Air Temp Water Temp Dewpoint Dewpoint Depression Visibility Wind Speed Wind Dir Waves Ship Positions

Mega Smeralda

Last reported at 2018-Jan-22 08:26 UTC. Time now 2018-Jan-22 08:48 UTC.
Position N 42°53' E 009°48'.

Length 171 m; draft 6.3 m.

Type: Passenger vessel. MMSI: 247228600.

Date/timePositionNaut miles runAvg speedWind from/ knotsBaromVisibWave heightAir tempDewpointWater temp
2018-Jan-22 08:26N 42°53' E 009°48'24 5.9
2018-Jan-22 04:17N 43°04' E 009°18'518.9
2018-Jan-22 04:00N 43°04' E 009°11'1418.8
2018-Jan-22 03:16N 43°03' E 008°52'518.9
2018-Jan-22 03:00N 43°03' E 008°45'12218.3
2018-Jan-21 20:20N 43°04' E 005°59'310.2
2018-Jan-21 20:00N 43°07' E 005°55'0 0.7
2018-Jan-21 19:30N 43°07' E 005°56'0 0.0
2018-Jan-21 19:00N 43°07' E 005°56'0 0.0
2018-Jan-21 18:30N 43°07' E 005°56'0 0.0
2018-Jan-21 18:00N 43°07' E 005°56'0 0.0
2018-Jan-21 17:30N 43°07' E 005°56'0 0.0
2018-Jan-21 17:00N 43°07' E 005°56'0 0.0
2018-Jan-21 16:30N 43°07' E 005°56'0 0.0
2018-Jan-21 16:00N 43°07' E 005°56'0 0.0
2018-Jan-21 15:30N 43°07' E 005°56'0 0.0
2018-Jan-21 15:00N 43°07' E 005°56'0 0.0
2018-Jan-21 14:30N 43°07' E 005°56'0 0.0
2018-Jan-21 14:00N 43°07' E 005°56'0 0.0
2018-Jan-21 13:30N 43°07' E 005°56'0 0.0
2018-Jan-21 13:00N 43°07' E 005°56'0 0.0
2018-Jan-21 12:30N 43°07' E 005°56'0 0.0
2018-Jan-21 12:00N 43°07' E 005°56'0 0.0
2018-Jan-21 11:30N 43°07' E 005°56'2 3.3
2018-Jan-21 11:00N 43°05' E 005°57'4715.0
2018-Jan-21 07:53N 43°05' E 007°00'616.1
2018-Jan-21 07:30N 43°06' E 007°08'916.1
2018-Jan-21 06:56N 43°08' E 007°21'716.2
2018-Jan-21 06:30N 43°10' E 007°30'1116.4
2018-Jan-21 05:49N 43°13' E 007°45'817.8
2018-Jan-21 05:23N 43°16' E 007°55'717.5
2018-Jan-21 05:00N 43°18' E 008°03'815.9
2018-Jan-21 04:30N 43°16' E 008°14'814.7
2018-Jan-21 03:59N 43°13' E 008°23'3214.1
2018-Jan-21 01:42N 43°04' E 009°06'315.0
2018-Jan-21 01:30N 43°04' E 009°10'715.0
2018-Jan-21 01:00N 43°04' E 009°20'714.6
2018-Jan-21 00:30N 43°02' E 009°30'16 1.9
2018-Jan-20 16:09N 42°53' E 009°47'318.0
2018-Jan-20 16:00N 42°55' E 009°50'917.7
2018-Jan-20 15:30N 43°02' E 009°58'918.0
2018-Jan-20 15:00N 43°10' E 010°03'917.5
2018-Jan-20 14:30N 43°18' E 010°07'917.8
2018-Jan-20 14:00N 43°26' E 010°11'713.4
2018-Jan-20 13:30N 43°32' E 010°16'2 2.9
2018-Jan-20 13:00N 43°33' E 010°18'0 0.0
2018-Jan-20 12:30N 43°33' E 010°18'0 0.7
2018-Jan-20 12:00N 43°33' E 010°18'5 9.4
2018-Jan-20 11:30N 43°29' E 010°13'1019.1
2018-Jan-20 11:00N 43°21' E 010°08'1019.2
2018-Jan-20 10:30N 43°12' E 010°04'1019.3
2018-Jan-20 10:01N 43°03' E 009°59'1019.0
2018-Jan-20 09:30N 42°55' E 009°51'14 3.1
2018-Jan-20 04:58N 42°59' E 009°33'917.7
2018-Jan-20 04:26N 43°05' E 009°23'14918.1
2018-Jan-19 20:12N 43°04' E 005°58'212.9
2018-Jan-19 20:00N 43°05' E 005°55'2 3.2
2018-Jan-19 19:28N 43°07' E 005°56'0 0.0
2018-Jan-19 18:58N 43°07' E 005°56'0 0.0
2018-Jan-19 18:28N 43°07' E 005°56'0 0.0
2018-Jan-19 17:58N 43°07' E 005°56'0 0.0
2018-Jan-19 17:28N 43°07' E 005°56'0 0.0
2018-Jan-19 16:58N 43°07' E 005°56'0 0.0
2018-Jan-19 16:28N 43°07' E 005°56'0 0.0
2018-Jan-19 15:58N 43°07' E 005°56'0 0.0
2018-Jan-19 15:28N 43°07' E 005°56'0 0.0
2018-Jan-19 14:58N 43°07' E 005°56'0 0.0
2018-Jan-19 14:28N 43°07' E 005°56'0 0.0
2018-Jan-19 13:58N 43°07' E 005°56'0 0.0
2018-Jan-19 13:28N 43°07' E 005°56'0 0.0
2018-Jan-19 12:58N 43°07' E 005°56'0 0.0
2018-Jan-19 12:28N 43°07' E 005°56'0 0.0
2018-Jan-19 11:58N 43°07' E 005°56'0 0.0
2018-Jan-19 11:22N 43°07' E 005°56'0 0.0
2018-Jan-19 10:58N 43°07' E 005°56'1 3.1
2018-Jan-19 10:30N 43°06' E 005°55'5016.4
2018-Jan-19 07:27N 43°01' E 007°03'817.5
2018-Jan-19 07:01N 43°03' E 007°14'917.4
2018-Jan-19 06:31N 43°05' E 007°25'5916.4
2018-Jan-19 02:56N 43°12' E 008°45'614.6
2018-Jan-19 02:30N 43°11' E 008°54'914.4
2018-Jan-19 01:51N 43°08' E 009°06'514.6
2018-Jan-19 01:30N 43°06' E 009°12'714.1
2018-Jan-19 01:00N 43°05' E 009°22'714.8
2018-Jan-19 00:30N 43°01' E 009°31'  
Track history (hours):
 
Tides and Currents Weather Stations Pressure Air Temp Water Temp Dewpoint Dewpoint Depression Visibility Wind Speed Wind Dir Waves Ship Positions

Mega Smeralda

Last reported at 2018-Jan-22 08:26 UTC. Time now 2018-Jan-22 08:48 UTC.
Position N 42°53' E 009°48'.

Length 171 m; draft 6.3 m.

Type: Passenger vessel. MMSI: 247228600.

Date/timePositionNaut miles runAvg speedWind from/ knotsBaromVisibWave heightAir tempDewpointWater temp
2018-Jan-22 08:26N 42°53' E 009°48'24 5.9
2018-Jan-22 04:17N 43°04' E 009°18'518.9
2018-Jan-22 04:00N 43°04' E 009°11'1418.8
2018-Jan-22 03:16N 43°03' E 008°52'518.9
2018-Jan-22 03:00N 43°03' E 008°45'12218.3
2018-Jan-21 20:20N 43°04' E 005°59'310.2
2018-Jan-21 20:00N 43°07' E 005°55'0 0.7
2018-Jan-21 19:30N 43°07' E 005°56'0 0.0
2018-Jan-21 19:00N 43°07' E 005°56'0 0.0
2018-Jan-21 18:30N 43°07' E 005°56'0 0.0
2018-Jan-21 18:00N 43°07' E 005°56'0 0.0
2018-Jan-21 17:30N 43°07' E 005°56'0 0.0
2018-Jan-21 17:00N 43°07' E 005°56'0 0.0
2018-Jan-21 16:30N 43°07' E 005°56'0 0.0
2018-Jan-21 16:00N 43°07' E 005°56'0 0.0
2018-Jan-21 15:30N 43°07' E 005°56'0 0.0
2018-Jan-21 15:00N 43°07' E 005°56'0 0.0
2018-Jan-21 14:30N 43°07' E 005°56'0 0.0
2018-Jan-21 14:00N 43°07' E 005°56'0 0.0
2018-Jan-21 13:30N 43°07' E 005°56'0 0.0
2018-Jan-21 13:00N 43°07' E 005°56'0 0.0
2018-Jan-21 12:30N 43°07' E 005°56'0 0.0
2018-Jan-21 12:00N 43°07' E 005°56'0 0.0
2018-Jan-21 11:30N 43°07' E 005°56'2 3.3
2018-Jan-21 11:00N 43°05' E 005°57'4715.0
2018-Jan-21 07:53N 43°05' E 007°00'616.1
2018-Jan-21 07:30N 43°06' E 007°08'916.1
2018-Jan-21 06:56N 43°08' E 007°21'716.2
2018-Jan-21 06:30N 43°10' E 007°30'1116.4
2018-Jan-21 05:49N 43°13' E 007°45'817.8
2018-Jan-21 05:23N 43°16' E 007°55'717.5
2018-Jan-21 05:00N 43°18' E 008°03'815.9
2018-Jan-21 04:30N 43°16' E 008°14'814.7
2018-Jan-21 03:59N 43°13' E 008°23'3214.1
2018-Jan-21 01:42N 43°04' E 009°06'315.0
2018-Jan-21 01:30N 43°04' E 009°10'715.0
2018-Jan-21 01:00N 43°04' E 009°20'714.6
2018-Jan-21 00:30N 43°02' E 009°30'16 1.9
2018-Jan-20 16:09N 42°53' E 009°47'318.0
2018-Jan-20 16:00N 42°55' E 009°50'917.7
2018-Jan-20 15:30N 43°02' E 009°58'918.0
2018-Jan-20 15:00N 43°10' E 010°03'917.5
2018-Jan-20 14:30N 43°18' E 010°07'917.8
2018-Jan-20 14:00N 43°26' E 010°11'713.4
2018-Jan-20 13:30N 43°32' E 010°16'2 2.9
2018-Jan-20 13:00N 43°33' E 010°18'0 0.0
2018-Jan-20 12:30N 43°33' E 010°18'0 0.7
2018-Jan-20 12:00N 43°33' E 010°18'5 9.4
2018-Jan-20 11:30N 43°29' E 010°13'1019.1
2018-Jan-20 11:00N 43°21' E 010°08'1019.2
2018-Jan-20 10:30N 43°12' E 010°04'1019.3
2018-Jan-20 10:01N 43°03' E 009°59'1019.0
2018-Jan-20 09:30N 42°55' E 009°51'14 3.1
2018-Jan-20 04:58N 42°59' E 009°33'917.7
2018-Jan-20 04:26N 43°05' E 009°23'14918.1
2018-Jan-19 20:12N 43°04' E 005°58'212.9
2018-Jan-19 20:00N 43°05' E 005°55'2 3.2
2018-Jan-19 19:28N 43°07' E 005°56'0 0.0
2018-Jan-19 18:58N 43°07' E 005°56'0 0.0
2018-Jan-19 18:28N 43°07' E 005°56'0 0.0
2018-Jan-19 17:58N 43°07' E 005°56'0 0.0
2018-Jan-19 17:28N 43°07' E 005°56'0 0.0
2018-Jan-19 16:58N 43°07' E 005°56'0 0.0
2018-Jan-19 16:28N 43°07' E 005°56'0 0.0
2018-Jan-19 15:58N 43°07' E 005°56'0 0.0
2018-Jan-19 15:28N 43°07' E 005°56'0 0.0
2018-Jan-19 14:58N 43°07' E 005°56'0 0.0
2018-Jan-19 14:28N 43°07' E 005°56'0 0.0
2018-Jan-19 13:58N 43°07' E 005°56'0 0.0
2018-Jan-19 13:28N 43°07' E 005°56'0 0.0
2018-Jan-19 12:58N 43°07' E 005°56'0 0.0
2018-Jan-19 12:28N 43°07' E 005°56'0 0.0
2018-Jan-19 11:58N 43°07' E 005°56'0 0.0
2018-Jan-19 11:22N 43°07' E 005°56'0 0.0
2018-Jan-19 10:58N 43°07' E 005°56'1 3.1
2018-Jan-19 10:30N 43°06' E 005°55'5016.4
2018-Jan-19 07:27N 43°01' E 007°03'817.5
2018-Jan-19 07:01N 43°03' E 007°14'917.4
2018-Jan-19 06:31N 43°05' E 007°25'5916.4
2018-Jan-19 02:56N 43°12' E 008°45'614.6
2018-Jan-19 02:30N 43°11' E 008°54'914.4
2018-Jan-19 01:51N 43°08' E 009°06'514.6
2018-Jan-19 01:30N 43°06' E 009°12'714.1
2018-Jan-19 01:00N 43°05' E 009°22'714.8
2018-Jan-19 00:30N 43°01' E 009°31'  

Dump ship's entire track history